createdAt,value
2018-07-17T00:04:07.191Z,19.80
2018-07-17T00:06:35.788Z,19.70
2018-07-17T00:09:04.814Z,19.70
2018-07-17T00:11:33.344Z,19.70
2018-07-17T00:14:01.890Z,19.70
2018-07-17T00:18:58.582Z,19.40
2018-07-17T00:21:27.146Z,19.30
2018-07-17T00:26:23.807Z,19.30
2018-07-17T00:28:52.377Z,19.40
2018-07-17T00:31:20.888Z,19.40
2018-07-17T00:36:17.602Z,19.30
2018-07-17T00:38:46.118Z,19.20
2018-07-17T00:41:14.686Z,19.20
2018-07-17T00:43:43.237Z,19.20
2018-07-17T00:46:11.751Z,19.10
2018-07-17T00:48:40.290Z,19.10
2018-07-17T00:53:37.017Z,19.10
2018-07-17T00:56:05.557Z,19.10
2018-07-17T00:58:34.065Z,19.10
2018-07-17T01:01:01.767Z,19.00
2018-07-17T01:03:35.633Z,19.00
2018-07-17T01:06:09.597Z,18.90
2018-07-17T01:08:43.455Z,18.90
2018-07-17T01:11:17.411Z,18.90
2018-07-17T01:13:50.672Z,18.90
2018-07-17T01:16:19.248Z,18.90
2018-07-17T01:18:47.742Z,18.80
2018-07-17T01:21:16.275Z,18.80
2018-07-17T01:23:44.816Z,18.70
2018-07-17T01:26:13.315Z,18.70
2018-07-17T01:28:41.809Z,18.60
2018-07-17T01:31:10.328Z,18.60
2018-07-17T01:33:38.838Z,18.50
2018-07-17T01:36:07.345Z,18.60
2018-07-17T01:38:35.923Z,18.60
2018-07-17T01:41:04.424Z,18.60
2018-07-17T01:43:32.981Z,18.50
2018-07-17T01:46:01.509Z,18.40
2018-07-17T01:48:30.051Z,18.20
2018-07-17T01:50:58.588Z,18.20
2018-07-17T01:53:27.149Z,18.20
2018-07-17T01:55:55.668Z,18.20
2018-07-17T01:58:24.170Z,18.30
2018-07-17T02:03:20.974Z,18.30
2018-07-17T02:05:49.520Z,18.30
2018-07-17T02:08:18.048Z,18.30
2018-07-17T02:10:46.562Z,18.30
2018-07-17T02:13:15.104Z,18.30
2018-07-17T02:15:43.624Z,18.20
2018-07-17T02:18:12.160Z,18.00
2018-07-17T02:20:40.656Z,18.00
2018-07-17T02:23:09.152Z,17.90
2018-07-17T02:25:37.686Z,17.90
2018-07-17T02:28:06.201Z,17.80
2018-07-17T02:30:34.716Z,17.80
2018-07-17T02:33:03.250Z,17.70
2018-07-17T02:35:31.835Z,17.70
2018-07-17T02:38:00.372Z,17.80
2018-07-17T02:40:28.893Z,17.80
2018-07-17T02:42:57.398Z,17.80
2018-07-17T02:45:25.968Z,17.70
2018-07-17T02:47:54.513Z,17.80
2018-07-17T02:50:23.050Z,17.70
2018-07-17T02:52:51.601Z,17.70
2018-07-17T02:55:20.113Z,17.70
2018-07-17T02:57:48.659Z,17.80
2018-07-17T03:00:17.204Z,17.80
2018-07-17T03:02:45.734Z,17.80
2018-07-17T03:05:14.266Z,17.80
2018-07-17T03:07:42.791Z,17.80
2018-07-17T03:10:11.351Z,17.70
2018-07-17T03:12:39.963Z,17.70
2018-07-17T03:17:36.698Z,17.70
2018-07-17T03:20:05.373Z,17.70
2018-07-17T03:22:33.901Z,17.70
2018-07-17T03:25:02.430Z,17.70
2018-07-17T03:27:30.982Z,17.70
2018-07-17T03:29:59.519Z,17.70
2018-07-17T03:32:28.066Z,17.70
2018-07-17T03:37:24.774Z,17.70
2018-07-17T03:39:53.286Z,17.70
2018-07-17T03:42:21.858Z,17.60
2018-07-17T03:44:50.384Z,17.60
2018-07-17T03:47:18.900Z,17.60
2018-07-17T03:49:47.431Z,17.60
2018-07-17T03:52:16.068Z,17.50
2018-07-17T03:54:44.578Z,17.50
2018-07-17T03:57:13.988Z,17.60
2018-07-17T03:59:42.545Z,17.60
2018-07-17T04:02:11.072Z,17.70
2018-07-17T04:04:39.587Z,17.70
2018-07-17T04:07:08.157Z,17.80
2018-07-17T04:09:36.700Z,17.70
2018-07-17T04:12:05.231Z,17.70
2018-07-17T04:14:33.777Z,17.70
2018-07-17T04:17:02.365Z,17.70
2018-07-17T04:19:30.862Z,17.80
2018-07-17T04:21:59.391Z,17.80
2018-07-17T04:24:27.925Z,17.90
2018-07-17T04:26:56.476Z,17.90
2018-07-17T04:29:25.020Z,17.90
2018-07-17T04:31:53.708Z,17.90
2018-07-17T04:34:22.161Z,18.00
2018-07-17T04:36:50.661Z,18.00
2018-07-17T04:39:19.210Z,18.00
2018-07-17T04:41:47.717Z,18.00
2018-07-17T04:44:16.359Z,18.00
2018-07-17T04:46:44.781Z,18.00
2018-07-17T04:51:41.544Z,18.10
2018-07-17T04:54:10.164Z,18.20
2018-07-17T04:56:38.712Z,18.30
2018-07-17T04:59:07.238Z,18.40
2018-07-17T05:01:35.793Z,18.40
2018-07-17T05:04:04.325Z,18.50
2018-07-17T05:06:32.862Z,18.50
2018-07-17T05:09:01.409Z,18.60
2018-07-17T05:11:29.916Z,18.60
2018-07-17T05:13:58.425Z,18.70
2018-07-17T05:16:26.947Z,18.70
2018-07-17T05:18:55.499Z,18.80
2018-07-17T05:21:24.027Z,18.80
2018-07-17T05:23:52.583Z,18.80
2018-07-17T05:26:21.120Z,18.80
2018-07-17T05:28:49.722Z,18.80
2018-07-17T05:31:18.225Z,18.70
2018-07-17T05:33:46.770Z,18.70
2018-07-17T05:36:15.335Z,18.70
2018-07-17T05:38:43.827Z,18.70
2018-07-17T05:41:12.420Z,18.70
2018-07-17T05:43:40.973Z,18.70
2018-07-17T05:48:37.687Z,18.70
2018-07-17T05:51:06.241Z,18.80
2018-07-17T05:53:34.757Z,18.80
2018-07-17T05:56:03.277Z,18.90
2018-07-17T05:58:31.811Z,19.00
2018-07-17T06:01:00.383Z,19.10
2018-07-17T06:03:28.973Z,19.20
2018-07-17T06:05:57.525Z,19.30
2018-07-17T06:08:26.063Z,19.40
2018-07-17T06:10:54.620Z,19.50
2018-07-17T06:15:51.419Z,19.60
2018-07-17T06:18:19.894Z,19.60
2018-07-17T06:20:48.456Z,19.70
2018-07-17T06:25:45.191Z,19.90
2018-07-17T06:28:13.723Z,20.00
2018-07-17T06:30:42.323Z,20.10
2018-07-17T06:33:10.881Z,20.20
2018-07-17T06:35:39.408Z,20.20
2018-07-17T06:38:07.993Z,20.30
2018-07-17T06:40:36.522Z,20.30
2018-07-17T06:43:05.743Z,20.30
2018-07-17T06:48:02.487Z,20.20
2018-07-17T06:50:31.092Z,20.10
2018-07-17T06:52:59.580Z,20.10
2018-07-17T06:55:28.133Z,20.10
2018-07-17T06:57:56.655Z,20.10
2018-07-17T07:00:25.210Z,20.20
2018-07-17T07:02:53.731Z,20.20
2018-07-17T07:05:22.230Z,20.30
2018-07-17T07:07:50.734Z,20.40
2018-07-17T07:10:19.340Z,20.40
2018-07-17T07:12:47.897Z,20.40
2018-07-17T07:15:16.410Z,20.40
2018-07-17T07:17:44.953Z,20.40
2018-07-17T07:20:13.506Z,20.40
2018-07-17T07:22:42.186Z,20.40
2018-07-17T07:25:10.730Z,20.40
2018-07-17T07:30:07.476Z,20.80
2018-07-17T07:32:36.022Z,21.00
2018-07-17T07:35:04.786Z,21.10
2018-07-17T07:37:33.338Z,21.00
2018-07-17T07:40:01.853Z,20.90
2018-07-17T07:44:58.583Z,20.80
2018-07-17T07:47:27.154Z,20.80
2018-07-17T07:49:55.688Z,20.80
2018-07-17T07:52:24.218Z,20.90
2018-07-17T07:54:52.758Z,20.90
2018-07-17T07:59:49.460Z,21.30
2018-07-17T08:02:18.016Z,21.50
2018-07-17T08:04:46.501Z,21.50
2018-07-17T08:07:15.041Z,21.50
2018-07-17T08:09:43.551Z,21.70
2018-07-17T08:12:12.100Z,21.90
2018-07-17T08:14:40.627Z,21.90
2018-07-17T08:17:09.200Z,22.00
2018-07-17T08:19:37.774Z,22.20
2018-07-17T08:22:06.368Z,22.50
2018-07-17T08:24:34.920Z,22.80
2018-07-17T08:27:03.474Z,22.90
2018-07-17T08:29:32.000Z,22.70
2018-07-17T08:32:00.622Z,22.60
2018-07-17T08:34:29.148Z,22.50
2018-07-17T08:41:54.048Z,22.10
2018-07-17T08:44:22.638Z,22.00
2018-07-17T08:46:51.188Z,21.90
2018-07-17T08:49:19.733Z,21.70
2018-07-17T08:51:48.268Z,21.70
2018-07-17T08:54:16.784Z,21.60
2018-07-17T08:56:45.380Z,21.50
2018-07-17T08:59:14.120Z,21.60
2018-07-17T09:01:42.682Z,21.60
2018-07-17T09:04:11.262Z,21.80
2018-07-17T09:06:39.796Z,22.00
2018-07-17T09:09:08.308Z,22.30
2018-07-17T09:11:36.959Z,22.60
2018-07-17T09:14:05.527Z,22.70
2018-07-17T09:16:34.088Z,23.20
2018-07-17T09:19:02.639Z,23.70
2018-07-17T09:21:31.203Z,24.10
2018-07-17T09:23:59.756Z,24.30
2018-07-17T09:26:28.323Z,24.20
2018-07-17T09:28:56.858Z,24.10
2018-07-17T09:33:53.597Z,24.30
2018-07-17T09:36:22.125Z,24.40
2018-07-17T09:38:50.643Z,24.50
2018-07-17T09:41:19.205Z,24.70
2018-07-17T09:43:47.769Z,25.00
2018-07-17T09:48:44.523Z,24.90
2018-07-17T09:53:41.271Z,24.90
2018-07-17T09:56:09.831Z,25.10
2018-07-17T09:58:38.402Z,25.30
2018-07-17T10:01:12.164Z,25.60
2018-07-17T10:03:40.725Z,25.70
2018-07-17T10:06:09.331Z,25.50
2018-07-17T10:08:37.872Z,25.70
2018-07-17T10:11:06.445Z,26.20
2018-07-17T10:13:35.006Z,26.60
2018-07-17T10:16:03.563Z,27.00
2018-07-17T10:18:32.138Z,27.30
2018-07-17T10:21:00.729Z,26.90
2018-07-17T10:23:29.274Z,26.50
2018-07-17T10:25:57.833Z,26.60
2018-07-17T10:28:26.409Z,26.70
2018-07-17T10:30:54.981Z,26.10
2018-07-17T10:33:23.507Z,26.20
2018-07-17T10:38:20.261Z,26.90
2018-07-17T10:40:48.816Z,26.90
2018-07-17T10:43:17.374Z,26.90
2018-07-17T10:45:45.909Z,27.20
2018-07-17T10:48:14.457Z,27.40
2018-07-17T10:50:43.020Z,27.50
2018-07-17T10:55:39.743Z,28.10
2018-07-17T10:58:08.323Z,28.50
2018-07-17T11:00:36.850Z,28.60
2018-07-17T11:05:33.606Z,28.70
2018-07-17T11:08:02.190Z,28.80
2018-07-17T11:10:30.792Z,28.70
2018-07-17T11:15:27.541Z,29.20
2018-07-17T11:17:56.071Z,29.30
2018-07-17T11:20:24.600Z,29.50
2018-07-17T11:22:53.172Z,29.60
2018-07-17T11:25:21.761Z,29.70
2018-07-17T11:27:50.317Z,29.70
2018-07-17T11:30:18.951Z,29.90
2018-07-17T11:32:47.510Z,30.20
2018-07-17T11:35:16.018Z,30.20
2018-07-17T11:37:44.580Z,30.10
2018-07-17T11:40:13.121Z,30.10
2018-07-17T11:42:41.681Z,29.90
2018-07-17T11:45:10.214Z,29.80
2018-07-17T11:47:38.751Z,29.70
2018-07-17T11:50:07.832Z,29.90
2018-07-17T11:52:36.365Z,30.20
2018-07-17T11:55:05.053Z,30.40
2018-07-17T11:57:33.767Z,30.40
2018-07-17T12:02:30.518Z,30.50
2018-07-17T12:04:59.096Z,30.50
2018-07-17T12:07:27.616Z,30.50
2018-07-17T12:09:56.143Z,30.50
2018-07-17T12:12:24.735Z,30.80
2018-07-17T12:14:53.297Z,31.20
2018-07-17T12:17:21.887Z,31.20
2018-07-17T12:19:50.481Z,31.10
2018-07-17T12:22:19.040Z,30.80
2018-07-17T12:24:47.581Z,30.80
2018-07-17T12:27:16.181Z,30.90
2018-07-17T12:29:44.730Z,31.10
2018-07-17T12:32:13.262Z,31.20
2018-07-17T12:34:41.834Z,31.40
2018-07-17T12:37:10.422Z,31.30
2018-07-17T12:39:38.984Z,31.00
2018-07-17T12:42:07.674Z,31.00
2018-07-17T12:44:36.247Z,30.90
2018-07-17T12:47:04.806Z,30.90
2018-07-17T12:49:33.356Z,31.00
2018-07-17T12:52:01.910Z,31.10
2018-07-17T12:54:30.536Z,31.20
2018-07-17T12:56:59.126Z,31.00
2018-07-17T12:59:27.711Z,31.10
2018-07-17T13:01:56.303Z,31.00
2018-07-17T13:04:24.880Z,30.90
2018-07-17T13:06:53.433Z,30.70
2018-07-17T13:09:22.042Z,30.70
2018-07-17T13:14:18.767Z,30.70
2018-07-17T13:16:47.290Z,30.70
2018-07-17T13:19:15.867Z,30.80
2018-07-17T13:21:44.479Z,30.60
2018-07-17T13:24:13.013Z,30.70
2018-07-17T13:31:37.970Z,30.70
2018-07-17T13:34:06.536Z,30.60
2018-07-17T13:39:03.692Z,30.00
2018-07-17T13:41:32.247Z,29.60
2018-07-17T13:44:00.818Z,29.30
2018-07-17T13:46:29.362Z,29.10
2018-07-17T13:48:57.925Z,29.10
2018-07-17T13:51:26.433Z,29.50
2018-07-17T13:53:55.005Z,30.00
2018-07-17T13:56:23.650Z,30.20
2018-07-17T13:58:52.380Z,30.30
2018-07-17T14:01:20.943Z,30.50
2018-07-17T14:03:49.514Z,30.70
2018-07-17T14:06:18.064Z,30.90
2018-07-17T14:08:46.633Z,31.00
2018-07-17T14:11:15.171Z,30.50
2018-07-17T14:13:43.707Z,30.30
2018-07-17T14:16:12.325Z,30.00
2018-07-17T14:18:40.891Z,29.80
2018-07-17T14:21:09.416Z,29.80
2018-07-17T14:23:38.018Z,30.30
2018-07-17T14:28:34.786Z,30.20
2018-07-17T14:31:04.233Z,29.80
2018-07-17T14:33:32.806Z,29.10
2018-07-17T14:36:01.349Z,28.70
2018-07-17T14:38:29.926Z,28.20
2018-07-17T14:43:26.698Z,27.70
2018-07-17T14:48:23.454Z,27.30
2018-07-17T14:50:51.968Z,27.10
2018-07-17T14:53:20.510Z,27.00
2018-07-17T14:55:49.083Z,26.90
2018-07-17T14:58:17.683Z,26.90
2018-07-17T15:00:46.210Z,26.70
2018-07-17T15:03:14.791Z,26.20
2018-07-17T15:10:39.672Z,25.90
2018-07-17T15:13:08.233Z,25.80
2018-07-17T15:15:36.860Z,25.60
2018-07-17T15:18:05.462Z,25.40
2018-07-17T15:20:33.989Z,24.90
2018-07-17T15:25:30.754Z,24.10
2018-07-17T15:30:28.468Z,23.20
2018-07-17T15:32:56.989Z,22.90
2018-07-17T15:35:25.565Z,22.70
2018-07-17T15:37:54.157Z,22.50
2018-07-17T15:40:22.831Z,22.40
2018-07-17T15:42:51.455Z,22.50
2018-07-17T15:45:20.109Z,22.60
2018-07-17T15:47:48.692Z,22.70
2018-07-17T15:50:17.276Z,22.70
2018-07-17T15:52:45.830Z,22.70
2018-07-17T15:57:43.483Z,22.60
2018-07-17T16:00:12.072Z,22.70
2018-07-17T16:02:40.740Z,22.60
2018-07-17T16:05:09.286Z,22.60
2018-07-17T16:10:06.073Z,22.60
2018-07-17T16:12:34.625Z,22.60
2018-07-17T16:15:03.174Z,22.60
2018-07-17T16:17:31.722Z,22.60
2018-07-17T16:20:00.270Z,22.40
2018-07-17T16:22:28.862Z,22.40
2018-07-17T16:24:57.400Z,22.30
2018-07-17T16:27:26.076Z,22.00
2018-07-17T16:29:54.626Z,21.80
2018-07-17T16:32:23.132Z,21.60
2018-07-17T16:34:51.696Z,21.40
2018-07-17T16:37:20.272Z,21.20
2018-07-17T16:39:48.813Z,21.10
2018-07-17T16:42:17.480Z,21.00
2018-07-17T16:44:46.101Z,20.90
2018-07-17T16:47:14.666Z,20.90
2018-07-17T16:52:11.489Z,20.80
2018-07-17T16:54:40.031Z,20.70
2018-07-17T16:57:08.581Z,20.70
2018-07-17T16:59:37.212Z,20.50
2018-07-17T17:02:06.080Z,20.50
2018-07-17T17:04:34.647Z,20.50
2018-07-17T17:07:03.232Z,20.40
2018-07-17T17:09:31.759Z,20.40
2018-07-17T17:12:00.299Z,20.50
2018-07-17T17:14:28.815Z,20.50
2018-07-17T17:19:25.564Z,20.50
2018-07-17T17:21:54.142Z,20.50
2018-07-17T17:24:23.045Z,20.50
2018-07-17T17:26:51.472Z,20.60
2018-07-17T17:29:20.067Z,20.60
2018-07-17T17:31:48.577Z,20.70
2018-07-17T17:34:17.161Z,20.80
2018-07-17T17:36:45.747Z,20.80
2018-07-17T17:39:14.253Z,20.70
2018-07-17T17:41:42.788Z,20.70
2018-07-17T17:44:11.397Z,20.70
2018-07-17T17:46:40.006Z,20.70
2018-07-17T17:49:08.549Z,20.60
2018-07-17T17:51:37.124Z,20.60
2018-07-17T17:54:05.755Z,20.50
2018-07-17T17:56:34.574Z,20.50
2018-07-17T17:59:03.254Z,20.50
2018-07-17T18:01:31.948Z,20.50
2018-07-17T18:04:00.537Z,20.50
2018-07-17T18:06:29.104Z,20.40
2018-07-17T18:08:57.674Z,20.50
2018-07-17T18:11:26.380Z,20.50
2018-07-17T18:13:54.958Z,20.40
2018-07-17T18:16:23.514Z,20.30
2018-07-17T18:18:52.627Z,20.30
2018-07-17T18:21:21.205Z,20.30
2018-07-17T18:23:49.868Z,20.40
2018-07-17T18:26:18.462Z,20.30
2018-07-17T18:28:47.059Z,20.30
2018-07-17T18:36:12.141Z,20.20
2018-07-17T18:38:40.680Z,20.20
2018-07-17T18:41:09.324Z,20.10
2018-07-17T18:43:37.849Z,20.10
2018-07-17T18:46:06.398Z,20.10
2018-07-17T18:48:35.122Z,20.00
2018-07-17T18:51:03.718Z,20.00
2018-07-17T18:53:32.995Z,20.00
2018-07-17T18:56:01.528Z,20.00
2018-07-17T18:58:30.079Z,19.90
2018-07-17T19:00:58.680Z,19.90
2018-07-17T19:03:27.203Z,19.90
2018-07-17T19:08:23.969Z,19.90
2018-07-17T19:13:35.037Z,19.90
2018-07-17T19:16:03.637Z,19.90
2018-07-17T19:18:32.254Z,19.80
2018-07-17T19:21:00.812Z,19.80
2018-07-17T19:23:29.348Z,19.80
2018-07-17T19:25:57.969Z,19.80
2018-07-17T19:28:26.536Z,19.80
2018-07-17T19:30:55.130Z,19.80
2018-07-17T19:33:23.706Z,19.70
2018-07-17T19:35:52.320Z,19.60
2018-07-17T19:38:20.904Z,19.60
2018-07-17T19:40:49.501Z,19.60
2018-07-17T19:43:17.999Z,19.50
2018-07-17T19:45:46.542Z,19.50
2018-07-17T19:48:15.074Z,19.50
2018-07-17T19:50:43.587Z,19.40
2018-07-17T19:53:12.110Z,19.30
2018-07-17T19:55:40.694Z,19.20
2018-07-17T19:58:09.460Z,19.10
2018-07-17T20:00:38.059Z,19.10
2018-07-17T20:03:06.670Z,19.10
2018-07-17T20:05:35.280Z,19.00
2018-07-17T20:08:03.841Z,18.90
2018-07-17T20:10:32.366Z,18.90
2018-07-17T20:13:00.851Z,19.00
2018-07-17T20:15:29.378Z,19.00
2018-07-17T20:17:57.928Z,19.00
2018-07-17T20:25:22.849Z,18.90
2018-07-17T20:27:51.415Z,18.80
2018-07-17T20:30:20.022Z,18.80
2018-07-17T20:32:48.689Z,18.80
2018-07-17T20:35:17.228Z,18.90
2018-07-17T20:42:42.184Z,18.70
2018-07-17T20:45:10.735Z,18.60
2018-07-17T20:47:39.383Z,18.60
2018-07-17T20:50:08.006Z,18.70
2018-07-17T20:52:36.635Z,18.80
2018-07-17T20:55:05.468Z,18.80
2018-07-17T20:57:34.090Z,18.70
2018-07-17T21:00:02.844Z,18.60
2018-07-17T21:02:31.373Z,18.60
2018-07-17T21:05:00.032Z,18.60
2018-07-17T21:07:28.509Z,18.50
2018-07-17T21:09:57.070Z,18.40
2018-07-17T21:12:25.605Z,18.40
2018-07-17T21:14:54.150Z,18.40
2018-07-17T21:17:22.700Z,18.40
2018-07-17T21:19:51.235Z,18.50
2018-07-17T21:22:19.765Z,18.60
2018-07-17T21:24:48.342Z,18.60
2018-07-17T21:27:16.850Z,18.70
2018-07-17T21:29:45.417Z,18.70
2018-07-17T21:32:13.950Z,18.80
2018-07-17T21:34:42.620Z,18.70
2018-07-17T21:37:11.203Z,18.80
2018-07-17T21:39:39.782Z,18.70
2018-07-17T21:42:08.398Z,18.60
2018-07-17T21:49:33.408Z,18.70
2018-07-17T21:52:02.146Z,18.60
2018-07-17T21:54:30.731Z,18.60
2018-07-17T21:56:59.233Z,18.60
2018-07-17T21:59:27.839Z,18.70
2018-07-17T22:01:56.419Z,18.70
2018-07-17T22:04:25.053Z,18.70
2018-07-17T22:06:53.598Z,18.70
2018-07-17T22:09:22.197Z,18.70
2018-07-17T22:11:50.746Z,18.70
2018-07-17T22:14:19.257Z,18.70
2018-07-17T22:16:47.917Z,18.70
2018-07-17T22:19:16.495Z,18.80
2018-07-17T22:29:09.608Z,18.80
2018-07-17T22:34:06.456Z,18.70
2018-07-17T22:36:35.028Z,18.80
2018-07-17T22:39:04.017Z,18.90
2018-07-17T22:41:32.514Z,18.90
2018-07-17T22:44:01.020Z,18.90
2018-07-17T22:46:29.595Z,18.90
2018-07-17T22:48:58.127Z,19.00
2018-07-17T22:51:26.653Z,19.00
2018-07-17T22:53:55.224Z,18.90
2018-07-17T22:56:23.744Z,18.80
2018-07-17T22:58:52.274Z,18.70
2018-07-17T23:01:20.805Z,18.70
2018-07-17T23:03:49.341Z,18.70
2018-07-17T23:08:46.959Z,18.60
2018-07-17T23:11:15.501Z,18.50
2018-07-17T23:13:44.078Z,18.50
2018-07-17T23:16:12.651Z,18.40
2018-07-17T23:18:41.281Z,18.40
2018-07-17T23:23:37.992Z,18.30
2018-07-17T23:26:06.572Z,18.30
2018-07-17T23:28:35.148Z,18.30
2018-07-17T23:31:03.808Z,18.30
2018-07-17T23:33:32.327Z,18.30
2018-07-17T23:36:00.855Z,18.30
2018-07-17T23:38:29.364Z,18.30
2018-07-17T23:43:26.075Z,18.30
2018-07-17T23:45:54.657Z,18.20
2018-07-17T23:48:23.190Z,18.20
2018-07-17T23:50:51.747Z,18.00
2018-07-17T23:53:20.262Z,17.90
2018-07-17T23:55:48.805Z,17.90
2018-07-17T23:58:17.374Z,17.80
